createdAt,value
2022-10-23T00:00:07.537Z,50.866756
2022-10-23T00:01:07.456Z,50.866528
2022-10-23T00:02:07.483Z,50.866882
2022-10-23T00:03:07.430Z,50.866760
2022-10-23T00:04:07.432Z,50.866894
2022-10-23T00:05:07.426Z,50.866768
2022-10-23T00:06:07.416Z,50.866863
2022-10-23T00:07:07.415Z,50.866936
2022-10-23T00:08:07.395Z,50.866932
2022-10-23T00:09:07.410Z,50.866859
2022-10-23T00:10:07.392Z,50.866943
2022-10-23T00:11:07.375Z,50.867054
2022-10-23T00:12:07.378Z,50.867001
2022-10-23T00:13:07.362Z,50.866852
2022-10-23T00:14:07.353Z,50.866844
2022-10-23T00:15:07.340Z,50.866817
2022-10-23T00:16:07.343Z,50.866787
2022-10-23T00:17:07.333Z,50.866779
2022-10-23T00:18:07.319Z,50.866753
2022-10-23T00:19:07.308Z,50.866791
2022-10-23T00:20:07.310Z,50.866756
2022-10-23T00:21:07.305Z,50.866756
2022-10-23T00:22:07.285Z,50.866798
2022-10-23T00:23:07.299Z,50.866753
2022-10-23T00:24:07.270Z,50.866707
2022-10-23T00:25:07.275Z,50.866840
2022-10-23T00:26:07.265Z,50.866882
2022-10-23T00:27:07.247Z,50.867039
2022-10-23T00:28:07.237Z,50.866856
2022-10-23T00:43:56.743Z,50.866554
2022-10-23T00:44:56.807Z,50.866673
2022-10-23T00:45:57.705Z,50.866814
2022-10-23T00:46:56.726Z,50.866814
2022-10-23T00:47:56.723Z,50.866814
2022-10-23T00:48:57.747Z,50.866814
2022-10-23T00:49:56.702Z,50.866814
2022-10-23T00:50:56.726Z,50.866814
2022-10-23T00:51:56.688Z,50.866814
2022-10-23T00:52:56.674Z,50.866814
2022-10-23T00:54:01.415Z,50.866814
2022-10-23T00:54:58.653Z,50.866814
2022-10-23T00:55:56.659Z,50.866814
2022-10-23T00:56:56.648Z,50.866814
2022-10-23T00:57:56.637Z,50.866814
2022-10-23T00:58:57.136Z,50.866814
2022-10-23T00:59:56.642Z,50.866814
2022-10-23T01:00:56.716Z,50.866814
2022-10-23T01:01:56.695Z,50.866814
2022-10-23T01:02:56.598Z,50.866814
2022-10-23T01:03:56.584Z,50.866814
2022-10-23T01:04:56.570Z,50.866814
2022-10-23T01:05:56.566Z,50.866814
2022-10-23T01:06:56.573Z,50.866814
2022-10-23T01:07:56.551Z,50.866577
2022-10-23T01:08:56.540Z,50.866577
2022-10-23T01:09:56.540Z,50.866577
2022-10-23T01:10:56.523Z,50.866577
2022-10-23T01:11:56.528Z,50.866684
2022-10-23T01:12:56.525Z,50.866714
2022-10-23T01:13:56.520Z,50.866707
2022-10-23T01:14:56.493Z,50.866726
2022-10-23T01:15:56.486Z,50.866714
2022-10-23T01:16:56.476Z,50.866711
2022-10-23T01:17:56.473Z,50.866760
2022-10-23T01:18:56.485Z,50.866745
2022-10-23T01:19:56.455Z,50.866714
2022-10-23T01:20:57.451Z,50.866707
2022-10-23T01:21:56.446Z,50.866714
2022-10-23T01:22:56.442Z,50.866730
2022-10-23T01:23:56.418Z,50.866749
2022-10-23T01:24:56.413Z,50.866726
2022-10-23T01:25:56.419Z,50.866688
2022-10-23T01:26:56.405Z,50.866711
2022-10-23T01:27:56.397Z,50.866730
2022-10-23T01:28:56.382Z,50.866707
2022-10-23T01:29:56.369Z,50.866760
2022-10-23T01:30:56.361Z,50.866833
2022-10-23T01:31:56.358Z,50.866798
2022-10-23T01:32:56.355Z,50.866737
2022-10-23T01:33:57.222Z,50.866676
2022-10-23T01:34:56.350Z,50.866707
2022-10-23T01:35:56.337Z,50.866711
2022-10-23T01:36:57.143Z,50.866707
2022-10-23T01:37:56.330Z,50.866661
2022-10-23T01:38:56.342Z,50.866684
2022-10-23T01:39:56.300Z,50.866718
2022-10-23T01:40:56.285Z,50.866730
2022-10-23T01:41:56.293Z,50.866749
2022-10-23T01:42:56.281Z,50.866791
2022-10-23T01:43:56.268Z,50.866768
2022-10-23T01:44:56.252Z,50.866787
2022-10-23T01:45:56.248Z,50.866699
2022-10-23T01:46:56.241Z,50.866734
2022-10-23T01:47:56.235Z,50.866741
2022-10-23T01:48:56.251Z,50.866695
2022-10-23T01:49:57.210Z,50.866718
2022-10-23T01:50:56.210Z,50.866764
2022-10-23T01:51:56.196Z,50.866714
2022-10-23T01:52:56.195Z,50.866764
2022-10-23T01:53:56.176Z,50.866798
2022-10-23T01:54:56.168Z,50.866730
2022-10-23T01:55:56.175Z,50.866779
2022-10-23T01:56:56.172Z,50.866737
2022-10-23T01:57:56.153Z,50.866783
2022-10-23T01:58:56.145Z,50.866772
2022-10-23T01:59:56.136Z,50.866779
2022-10-23T02:00:56.185Z,50.866829
2022-10-23T02:01:56.225Z,50.866817
2022-10-23T02:02:56.115Z,50.866817
2022-10-23T02:03:56.221Z,50.866947
2022-10-23T02:04:56.098Z,50.866814
2022-10-23T02:05:56.088Z,50.866810
2022-10-23T02:06:56.075Z,50.866837
2022-10-23T02:07:56.068Z,50.866970
2022-10-23T02:08:56.080Z,50.866875
2022-10-23T02:09:56.057Z,50.866840
2022-10-23T02:10:56.071Z,50.866756
2022-10-23T02:11:56.045Z,50.866772
2022-10-23T02:12:56.034Z,50.866718
2022-10-23T02:13:56.037Z,50.866749
2022-10-23T02:14:56.043Z,50.866764
2022-10-23T02:15:56.007Z,50.866776
2022-10-23T02:16:56.000Z,50.866722
2022-10-23T02:17:55.996Z,50.866749
2022-10-23T02:18:55.978Z,50.866779
2022-10-23T02:19:55.968Z,50.866776
2022-10-23T02:20:55.988Z,50.866806
2022-10-23T02:21:55.957Z,50.866821
2022-10-23T02:22:55.950Z,50.866837
2022-10-23T02:23:56.323Z,50.866882
2022-10-23T02:24:55.927Z,50.866814
2022-10-23T02:25:55.917Z,50.866787
2022-10-23T02:26:55.908Z,50.866879
2022-10-23T02:27:55.897Z,50.866840
2022-10-23T02:28:55.938Z,50.866890
2022-10-23T02:29:55.886Z,50.866795
2022-10-23T02:30:55.874Z,50.866829
2022-10-23T02:31:55.863Z,50.866764
2022-10-23T02:32:55.861Z,50.866760
2022-10-23T02:33:55.849Z,50.866856
2022-10-23T02:34:55.845Z,50.867054
2022-10-23T02:35:55.831Z,50.867016
2022-10-23T02:36:55.823Z,50.867031
2022-10-23T02:37:55.816Z,50.867188
2022-10-23T02:38:55.807Z,50.867588
2022-10-23T02:39:55.811Z,50.867558
2022-10-23T02:40:55.785Z,50.866890
2022-10-23T02:41:56.791Z,50.866844
2022-10-23T02:42:55.781Z,50.866787
2022-10-23T02:43:56.657Z,50.866795
2022-10-23T02:44:55.769Z,50.866783
2022-10-23T02:45:55.747Z,50.866798
2022-10-23T02:46:55.731Z,50.866844
2022-10-23T02:47:56.733Z,50.866844
2022-10-23T02:48:55.728Z,50.866856
2022-10-23T02:49:55.723Z,50.866852
2022-10-23T02:50:55.716Z,50.866848
2022-10-23T02:51:55.699Z,50.866837
2022-10-23T02:52:55.698Z,50.866810
2022-10-23T02:53:58.706Z,50.866814
2022-10-23T02:54:55.679Z,50.866848
2022-10-23T02:55:55.675Z,50.866867
2022-10-23T02:56:55.659Z,50.866901
2022-10-23T02:57:55.659Z,50.866890
2022-10-23T02:58:55.642Z,50.866859
2022-10-23T02:59:55.638Z,50.866844
2022-10-23T03:00:55.728Z,50.866825
2022-10-23T03:01:55.740Z,50.866821
2022-10-23T03:02:55.617Z,50.866783
2022-10-23T03:03:55.642Z,50.866798
2022-10-23T03:04:55.617Z,50.866814
2022-10-23T03:05:55.608Z,50.866806
2022-10-23T03:06:55.607Z,50.866863
2022-10-23T03:07:55.573Z,50.866840
2022-10-23T03:08:55.573Z,50.866856
2022-10-23T03:09:55.573Z,50.866844
2022-10-23T03:10:55.593Z,50.866840
2022-10-23T03:11:55.549Z,50.866886
2022-10-23T03:12:55.536Z,50.866859
2022-10-23T03:13:55.530Z,50.866882
2022-10-23T03:14:55.520Z,50.866894
2022-10-23T03:15:56.263Z,50.866863
2022-10-23T03:16:55.508Z,50.866859
2022-10-23T03:17:55.495Z,50.866867
2022-10-23T03:18:55.498Z,50.866886
2022-10-23T03:19:55.492Z,50.866852
2022-10-23T03:20:55.476Z,50.866821
2022-10-23T03:21:55.468Z,50.866791
2022-10-23T03:22:55.456Z,50.866806
2022-10-23T03:23:55.447Z,50.866829
2022-10-23T03:24:55.441Z,50.866776
2022-10-23T03:25:55.431Z,50.866779
2022-10-23T03:26:55.434Z,50.866829
2022-10-23T03:27:55.428Z,50.866848
2022-10-23T03:28:55.400Z,50.866856
2022-10-23T03:29:57.247Z,50.866863
2022-10-23T03:30:56.263Z,50.866802
2022-10-23T03:31:55.390Z,50.866783
2022-10-23T03:32:55.376Z,50.866837
2022-10-23T03:33:55.366Z,50.866856
2022-10-23T03:34:55.358Z,50.866856
2022-10-23T03:35:55.355Z,50.866856
2022-10-23T03:36:56.174Z,50.866859
2022-10-23T03:37:55.341Z,50.866852
2022-10-23T03:38:55.329Z,50.866856
2022-10-23T03:39:55.323Z,50.866859
2022-10-23T03:40:55.312Z,50.866859
2022-10-23T03:41:55.303Z,50.866859
2022-10-23T03:42:55.292Z,50.866856
2022-10-23T03:43:56.337Z,50.866863
2022-10-23T03:44:55.279Z,50.866882
2022-10-23T03:45:55.278Z,50.866882
2022-10-23T03:46:55.246Z,50.866879
2022-10-23T03:47:56.263Z,50.866970
2022-10-23T03:48:55.249Z,50.867115
2022-10-23T03:49:55.234Z,50.867317
2022-10-23T03:50:55.227Z,50.867413
2022-10-23T03:51:55.225Z,50.867481
2022-10-23T03:52:55.235Z,50.867512
2022-10-23T03:53:55.199Z,50.867390
2022-10-23T03:54:55.198Z,50.867317
2022-10-23T03:55:55.183Z,50.867428
2022-10-23T03:56:57.491Z,50.867599
2022-10-23T03:57:55.190Z,50.867722
2022-10-23T03:58:55.181Z,50.868015
2022-10-23T03:59:55.160Z,50.868084
2022-10-23T04:00:55.149Z,50.868053
2022-10-23T04:01:55.289Z,50.868034
2022-10-23T04:02:55.140Z,50.867836
2022-10-23T04:03:55.129Z,50.867226
2022-10-23T04:04:55.125Z,50.866577
2022-10-23T04:05:55.117Z,50.866234
2022-10-23T04:06:55.108Z,50.866489
2022-10-23T04:07:55.099Z,50.866688
2022-10-23T04:08:55.763Z,50.866718
2022-10-23T04:09:55.093Z,50.866711
2022-10-23T04:10:55.070Z,50.866703
2022-10-23T04:11:55.059Z,50.866722
2022-10-23T04:12:55.046Z,50.866692
2022-10-23T04:13:55.052Z,50.866699
2022-10-23T04:14:55.041Z,50.866615
2022-10-23T04:15:55.021Z,50.866539
2022-10-23T04:16:55.014Z,50.866558
2022-10-23T04:17:55.012Z,50.866592
2022-10-23T04:18:55.001Z,50.866661
2022-10-23T04:19:54.999Z,50.866722
2022-10-23T04:20:54.986Z,50.866722
2022-10-23T04:21:54.972Z,50.866684
2022-10-23T04:22:54.966Z,50.866653
2022-10-23T04:23:54.958Z,50.866657
2022-10-23T04:24:54.953Z,50.866707
2022-10-23T04:25:54.955Z,50.866703
2022-10-23T04:26:54.936Z,50.866638
2022-10-23T04:27:54.934Z,50.866684
2022-10-23T04:28:54.920Z,50.866680
2022-10-23T04:29:56.863Z,50.866692
2022-10-23T04:30:54.906Z,50.866684
2022-10-23T04:31:54.897Z,50.866634
2022-10-23T04:32:54.913Z,50.866692
2022-10-23T04:33:54.936Z,50.866707
2022-10-23T04:34:54.879Z,50.866646
2022-10-23T04:35:54.867Z,50.866699
2022-10-23T04:36:54.858Z,50.866718
2022-10-23T04:37:55.773Z,50.866684
2022-10-23T04:38:54.841Z,50.866695
2022-10-23T04:39:54.834Z,50.866703
2022-10-23T04:40:54.832Z,50.866676
2022-10-23T04:41:54.826Z,50.866676
2022-10-23T04:42:54.830Z,50.866772
2022-10-23T04:43:54.799Z,50.866714
2022-10-23T04:44:54.795Z,50.866707
2022-10-23T04:45:54.790Z,50.866745
2022-10-23T04:46:54.775Z,50.866714
2022-10-23T04:47:54.764Z,50.866676
2022-10-23T04:48:54.754Z,50.866695
2022-10-23T04:49:54.751Z,50.866661
2022-10-23T04:50:54.753Z,50.866665
2022-10-23T04:51:54.729Z,50.866680
2022-10-23T04:52:55.687Z,50.866745
2022-10-23T04:53:54.709Z,50.866737
2022-10-23T04:54:54.709Z,50.866657
2022-10-23T04:55:54.694Z,50.866711
2022-10-23T04:56:54.714Z,50.866711
2022-10-23T04:57:54.691Z,50.866722
2022-10-23T04:58:54.730Z,50.866718
2022-10-23T04:59:54.664Z,50.866688
2022-10-23T05:00:54.735Z,50.866676
2022-10-23T05:01:54.701Z,50.866684
2022-10-23T05:02:54.638Z,50.866692
2022-10-23T05:03:54.657Z,50.866722
2022-10-23T05:04:54.621Z,50.866703
2022-10-23T05:05:54.616Z,50.866703
2022-10-23T05:06:54.612Z,50.866688
2022-10-23T05:07:54.607Z,50.866688
2022-10-23T05:08:54.600Z,50.866692
2022-10-23T05:09:54.591Z,50.866699
2022-10-23T05:10:54.582Z,50.866711
2022-10-23T05:11:54.577Z,50.866661
2022-10-23T05:12:54.565Z,50.866703
2022-10-23T05:13:54.556Z,50.866680
2022-10-23T05:14:54.549Z,50.866688
2022-10-23T05:15:54.544Z,50.866669
2022-10-23T05:16:54.530Z,50.866673
2022-10-23T05:17:54.534Z,50.866650
2022-10-23T05:18:54.508Z,50.866657
2022-10-23T05:19:54.503Z,50.866638
2022-10-23T05:20:54.505Z,50.866657
2022-10-23T05:21:54.503Z,50.866692
2022-10-23T05:22:54.490Z,50.866684
2022-10-23T05:23:54.611Z,50.866707
2022-10-23T05:24:54.462Z,50.866673
2022-10-23T05:25:54.456Z,50.866669
2022-10-23T05:26:54.457Z,50.866680
2022-10-23T05:27:54.436Z,50.866665
2022-10-23T05:28:54.431Z,50.866680
2022-10-23T05:29:54.422Z,50.866692
2022-10-23T05:30:54.421Z,50.866711
2022-10-23T05:31:54.410Z,50.866680
2022-10-23T05:32:54.402Z,50.866684
2022-10-23T05:33:54.388Z,50.866661
2022-10-23T05:34:55.200Z,50.866680
2022-10-23T05:35:54.388Z,50.866692
2022-10-23T05:36:54.375Z,50.866657
2022-10-23T05:37:54.382Z,50.866692
2022-10-23T05:38:54.357Z,50.866611
2022-10-23T05:39:54.341Z,50.866695
2022-10-23T05:40:54.339Z,50.866783
2022-10-23T05:41:54.341Z,50.866745
2022-10-23T05:42:54.346Z,50.866707
2022-10-23T05:47:02.161Z,50.866741
2022-10-23T05:48:10.990Z,50.866879
2022-10-23T05:49:03.154Z,50.866848
2022-10-23T05:50:02.161Z,50.866833
2022-10-23T05:51:02.137Z,50.866791
2022-10-23T05:52:02.158Z,50.866737
2022-10-23T05:53:03.126Z,50.866783
2022-10-23T05:54:02.136Z,50.866726
2022-10-23T05:55:02.098Z,50.866737
2022-10-23T05:56:02.126Z,50.866787
2022-10-23T05:57:02.079Z,50.866825
2022-10-23T05:58:02.094Z,50.866837
2022-10-23T05:59:02.066Z,50.866882
2022-10-23T06:00:02.083Z,50.866821
2022-10-23T06:01:02.097Z,50.866833
2022-10-23T06:02:02.114Z,50.866856
2022-10-23T06:03:02.046Z,50.866894
2022-10-23T06:04:02.035Z,50.866879
2022-10-23T06:05:02.027Z,50.866829
2022-10-23T06:06:02.040Z,50.866829
2022-10-23T06:07:02.000Z,50.866863
2022-10-23T06:08:01.995Z,50.866852
2022-10-23T06:09:01.987Z,50.866886
2022-10-23T06:10:01.989Z,50.866917
2022-10-23T06:11:01.965Z,50.866898
2022-10-23T06:12:01.954Z,50.866821
2022-10-23T06:13:01.946Z,50.866802
2022-10-23T06:14:01.948Z,50.866730
2022-10-23T06:15:01.942Z,50.866779
2022-10-23T06:16:01.927Z,50.866879
2022-10-23T06:17:01.939Z,50.866859
2022-10-23T06:18:01.917Z,50.866863
2022-10-23T06:19:01.903Z,50.866863
2022-10-23T06:20:01.894Z,50.866859
2022-10-23T06:21:01.920Z,50.866901
2022-10-23T06:22:01.888Z,50.866821
2022-10-23T06:23:01.866Z,50.866829
2022-10-23T06:24:02.537Z,50.866848
2022-10-23T06:25:01.857Z,50.866837
2022-10-23T06:26:01.846Z,50.866863
2022-10-23T06:27:01.844Z,50.866844
2022-10-23T06:28:01.837Z,50.866863
2022-10-23T06:29:01.818Z,50.866829
2022-10-23T06:30:01.813Z,50.866833
2022-10-23T06:31:01.822Z,50.866844
2022-10-23T06:32:01.830Z,50.866871
2022-10-23T06:33:04.523Z,50.866882
2022-10-23T06:34:01.778Z,50.866943
2022-10-23T06:35:01.777Z,50.866905
2022-10-23T06:36:01.768Z,50.866947
2022-10-23T06:37:01.752Z,50.866989
2022-10-23T06:38:01.757Z,50.867023
2022-10-23T06:39:02.546Z,50.866978
2022-10-23T06:40:01.735Z,50.866985
2022-10-23T06:41:01.724Z,50.866951
2022-10-23T06:42:01.714Z,50.866833
2022-10-23T06:43:01.710Z,50.866783
2022-10-23T06:44:01.704Z,50.866791
2022-10-23T06:45:04.864Z,50.866814
2022-10-23T06:46:03.683Z,50.866795
2022-10-23T06:47:01.672Z,50.866779
2022-10-23T06:48:01.662Z,50.866821
2022-10-23T06:49:01.666Z,50.866817
2022-10-23T06:50:01.683Z,50.866932
2022-10-23T06:51:01.641Z,50.866825
2022-10-23T06:52:01.629Z,50.866833
2022-10-23T06:53:01.623Z,50.866890
2022-10-23T06:54:01.628Z,50.866837
2022-10-23T06:55:01.607Z,50.866962
2022-10-23T06:56:01.608Z,50.866920
2022-10-23T06:57:01.589Z,50.866875
2022-10-23T06:58:01.586Z,50.866871
2022-10-23T06:59:01.604Z,50.866795
2022-10-23T07:00:01.581Z,50.866745
2022-10-23T07:01:01.650Z,50.866768
2022-10-23T07:02:01.547Z,50.866879
2022-10-23T07:03:01.535Z,50.866707
2022-10-23T07:04:01.563Z,50.866970
2022-10-23T07:05:01.567Z,50.866879
2022-10-23T07:06:01.527Z,50.867054
2022-10-23T07:07:01.511Z,50.867001
2022-10-23T07:08:01.506Z,50.866791
2022-10-23T07:09:01.516Z,50.866848
2022-10-23T07:10:01.542Z,50.866859
2022-10-23T07:11:01.476Z,50.866837
2022-10-23T07:12:01.488Z,50.866913
2022-10-23T07:13:01.507Z,50.866917
2022-10-23T07:14:01.456Z,50.866936
2022-10-23T07:15:02.453Z,50.866898
2022-10-23T07:16:01.439Z,50.866879
2022-10-23T07:17:01.448Z,50.866817
2022-10-23T07:18:01.423Z,50.866837
2022-10-23T07:19:01.423Z,50.866982
2022-10-23T07:20:01.415Z,50.866943
2022-10-23T07:21:01.401Z,50.866966
2022-10-23T07:22:01.395Z,50.866867
2022-10-23T07:23:01.387Z,50.866795
2022-10-23T07:24:01.386Z,50.866848
2022-10-23T07:25:01.370Z,50.866821
2022-10-23T07:26:01.361Z,50.866875
2022-10-23T07:27:01.439Z,50.866974
2022-10-23T07:28:01.341Z,50.866936
2022-10-23T07:29:01.340Z,50.866871
2022-10-23T07:30:01.336Z,50.866943
2022-10-23T07:31:01.317Z,50.867008
2022-10-23T07:32:01.316Z,50.866879
2022-10-23T07:33:01.297Z,50.866859
2022-10-23T07:34:01.294Z,50.866863
2022-10-23T07:35:01.377Z,50.866745
2022-10-23T07:36:01.281Z,50.866787
2022-10-23T07:37:01.269Z,50.866825
2022-10-23T07:38:01.262Z,50.866886
2022-10-23T07:39:01.254Z,50.866711
2022-10-23T07:40:01.264Z,50.866714
2022-10-23T07:41:01.237Z,50.866776
2022-10-23T07:42:01.227Z,50.866768
2022-10-23T07:43:01.234Z,50.866833
2022-10-23T07:44:02.045Z,50.866745
2022-10-23T07:45:01.210Z,50.866714
2022-10-23T07:46:01.198Z,50.866882
2022-10-23T07:47:01.193Z,50.866951
2022-10-23T07:48:01.186Z,50.866894
2022-10-23T07:49:01.179Z,50.867081
2022-10-23T07:50:01.168Z,50.866898
2022-10-23T07:51:01.154Z,50.867252
2022-10-23T07:53:01.142Z,50.867046
2022-10-23T07:54:01.145Z,50.866852
2022-10-23T07:55:01.106Z,50.866993
2022-10-23T07:56:02.114Z,50.866985
2022-10-23T07:57:01.169Z,50.866959
2022-10-23T07:58:01.100Z,50.866924
2022-10-23T07:59:01.099Z,50.866882
2022-10-23T08:00:01.083Z,50.866985
2022-10-23T08:01:01.114Z,50.867104
2022-10-23T08:02:01.155Z,50.867191
2022-10-23T08:03:01.061Z,50.866943
2022-10-23T08:04:01.059Z,50.866894
2022-10-23T08:05:01.043Z,50.866901
2022-10-23T08:06:01.036Z,50.866867
2022-10-23T08:07:01.029Z,50.866924
2022-10-23T08:08:01.026Z,50.866955
2022-10-23T08:09:03.875Z,50.866909
2022-10-23T08:10:02.009Z,50.866875
2022-10-23T08:11:01.000Z,50.866817
2022-10-23T08:12:00.986Z,50.866760
2022-10-23T08:13:00.987Z,50.866756
2022-10-23T08:14:00.982Z,50.866764
2022-10-23T08:15:00.968Z,50.866806
2022-10-23T08:16:00.977Z,50.866810
2022-10-23T08:18:00.941Z,50.866833
2022-10-23T08:19:00.949Z,50.866795
2022-10-23T08:20:00.927Z,50.866791
2022-10-23T08:21:00.927Z,50.866787
2022-10-23T08:22:00.920Z,50.866901
2022-10-23T08:23:00.903Z,50.866871
2022-10-23T08:24:00.897Z,50.866886
2022-10-23T08:25:00.891Z,50.866837
2022-10-23T08:26:00.886Z,50.866875
2022-10-23T08:27:00.869Z,50.866802
2022-10-23T08:28:04.169Z,50.866810
2022-10-23T08:29:02.855Z,50.866787
2022-10-23T08:30:00.852Z,50.866879
2022-10-23T08:31:00.838Z,50.866867
2022-10-23T08:32:02.493Z,50.866810
2022-10-23T08:33:00.826Z,50.866814
2022-10-23T08:34:00.814Z,50.866871
2022-10-23T08:35:00.832Z,50.866821
2022-10-23T08:36:00.840Z,50.866875
2022-10-23T08:37:00.828Z,50.866802
2022-10-23T08:38:00.790Z,50.866856
2022-10-23T08:39:00.781Z,50.866886
2022-10-23T08:40:00.772Z,50.866779
2022-10-23T08:41:00.769Z,50.866989
2022-10-23T08:42:00.878Z,50.867115
2022-10-23T08:43:00.755Z,50.866951
2022-10-23T08:44:00.734Z,50.866940
2022-10-23T08:45:00.732Z,50.866970
2022-10-23T08:46:00.720Z,50.866955
2022-10-23T08:47:00.724Z,50.866909
2022-10-23T08:48:01.562Z,50.866936
2022-10-23T08:49:00.723Z,50.866871
2022-10-23T08:50:00.699Z,50.866924
2022-10-23T08:51:00.681Z,50.866882
2022-10-23T08:52:00.717Z,50.866867
2022-10-23T08:53:00.665Z,50.866840
2022-10-23T08:54:00.656Z,50.866966
2022-10-23T08:55:00.653Z,50.866859
2022-10-23T08:56:00.679Z,50.866962
2022-10-23T08:57:00.638Z,50.866837
2022-10-23T08:58:00.627Z,50.866787
2022-10-23T08:59:00.618Z,50.866821
2022-10-23T09:00:01.485Z,50.866879
2022-10-23T09:01:00.712Z,50.866817
2022-10-23T09:02:00.708Z,50.866814
2022-10-23T09:03:01.511Z,50.866745
2022-10-23T09:04:00.570Z,50.866718
2022-10-23T09:05:00.597Z,50.866726
2022-10-23T09:06:00.570Z,50.866726
2022-10-23T09:07:00.627Z,50.866791
2022-10-23T09:08:00.540Z,50.866798
2022-10-23T09:09:00.537Z,50.866821
2022-10-23T09:10:00.536Z,50.866913
2022-10-23T09:11:00.516Z,50.866936
2022-10-23T09:12:00.514Z,50.866924
2022-10-23T09:13:00.507Z,50.866825
2022-10-23T09:14:00.495Z,50.866844
2022-10-23T09:15:00.494Z,50.866817
2022-10-23T09:16:00.471Z,50.866863
2022-10-23T09:17:00.489Z,50.866901
2022-10-23T09:18:00.467Z,50.866962
2022-10-23T09:19:00.454Z,50.866768
2022-10-23T09:20:00.455Z,50.866699
2022-10-23T09:21:00.442Z,50.866562
2022-10-23T09:22:00.986Z,50.866631
2022-10-23T09:23:00.430Z,50.866608
2022-10-23T09:24:00.420Z,50.866673
2022-10-23T09:25:00.404Z,50.866650
2022-10-23T09:26:00.398Z,50.866653
2022-10-23T09:27:00.472Z,50.866642
2022-10-23T09:28:04.281Z,50.866695
2022-10-23T09:29:01.382Z,50.866573
2022-10-23T09:30:00.375Z,50.866673
2022-10-23T09:31:00.364Z,50.866695
2022-10-23T09:32:00.347Z,50.866669
2022-10-23T09:33:00.348Z,50.866661
2022-10-23T09:34:00.333Z,50.866646
2022-10-23T09:35:00.325Z,50.866692
2022-10-23T09:36:00.326Z,50.866627
2022-10-23T09:37:00.324Z,50.866669
2022-10-23T09:38:00.395Z,50.866722
2022-10-23T09:39:00.299Z,50.866783
2022-10-23T09:40:00.282Z,50.866753
2022-10-23T09:41:00.272Z,50.866863
2022-10-23T09:42:00.270Z,50.866802
2022-10-23T09:43:01.087Z,50.866882
2022-10-23T09:44:00.249Z,50.866814
2022-10-23T09:45:00.241Z,50.866806
2022-10-23T09:46:00.239Z,50.866867
2022-10-23T09:47:00.225Z,50.866940
2022-10-23T09:48:00.218Z,50.867226
2022-10-23T09:49:03.592Z,50.866909
2022-10-23T09:50:00.233Z,50.866711
2022-10-23T09:51:00.207Z,50.866623
2022-10-23T09:52:00.959Z,50.866600
2022-10-23T09:53:00.174Z,50.866692
2022-10-23T09:54:00.177Z,50.866817
2022-10-23T09:55:00.157Z,50.866848
2022-10-23T09:56:00.148Z,50.866814
2022-10-23T09:57:00.153Z,50.866779
2022-10-23T09:58:00.131Z,50.866749
2022-10-23T09:59:00.131Z,50.866684
2022-10-23T10:00:00.169Z,50.866653
2022-10-23T10:01:00.286Z,50.866623
2022-10-23T10:02:00.256Z,50.866611
2022-10-23T10:03:00.106Z,50.866573
2022-10-23T10:04:00.112Z,50.866627
2022-10-23T10:05:00.081Z,50.866619
2022-10-23T10:06:00.099Z,50.866657
2022-10-23T10:07:00.063Z,50.866680
2022-10-23T10:08:00.060Z,50.866615
2022-10-23T10:09:00.042Z,50.866646
2022-10-23T10:10:00.037Z,50.866653
2022-10-23T10:11:00.027Z,50.866642
2022-10-23T10:12:00.032Z,50.866650
2022-10-23T10:13:00.028Z,50.866688
2022-10-23T10:14:00.001Z,50.866688
2022-10-23T10:15:00.008Z,50.866650
2022-10-23T10:15:59.997Z,50.866676
2022-10-23T10:16:59.985Z,50.866772
2022-10-23T10:17:59.979Z,50.866718
2022-10-23T10:18:59.979Z,50.866707
2022-10-23T10:20:03.731Z,50.866680
2022-10-23T10:21:01.951Z,50.866673
2022-10-23T10:21:59.941Z,50.866665
2022-10-23T10:22:59.953Z,50.866676
2022-10-23T10:24:01.980Z,50.866703
2022-10-23T10:24:59.916Z,50.866711
2022-10-23T10:25:59.918Z,50.866646
2022-10-23T10:27:00.508Z,50.866661
2022-10-23T10:27:59.963Z,50.866604
2022-10-23T10:28:59.892Z,50.866665
2022-10-23T10:29:59.884Z,50.866611
2022-10-23T10:30:59.870Z,50.866684
2022-10-23T10:31:59.871Z,50.866730
2022-10-23T10:32:59.885Z,50.866749
2022-10-23T10:33:59.844Z,50.866783
2022-10-23T10:34:59.849Z,50.866753
2022-10-23T10:35:59.839Z,50.866783
2022-10-23T10:36:59.830Z,50.866753
2022-10-23T10:37:59.803Z,50.866753
2022-10-23T10:38:59.794Z,50.866737
2022-10-23T10:39:59.792Z,50.866722
2022-10-23T10:40:59.795Z,50.866737
2022-10-23T10:41:59.800Z,50.866707
2022-10-23T10:42:59.767Z,50.866680
2022-10-23T10:44:00.756Z,50.866695
2022-10-23T10:44:59.748Z,50.866699
2022-10-23T10:45:59.772Z,50.866703
2022-10-23T10:46:59.756Z,50.866730
2022-10-23T10:47:59.742Z,50.866692
2022-10-23T10:48:59.720Z,50.866714
2022-10-23T10:49:59.710Z,50.866734
2022-10-23T10:50:59.700Z,50.866707
2022-10-23T10:51:59.727Z,50.866695
2022-10-23T10:52:59.693Z,50.866703
2022-10-23T10:53:59.675Z,50.866688
2022-10-23T10:54:59.690Z,50.866684
2022-10-23T10:55:59.731Z,50.866676
2022-10-23T10:56:59.656Z,50.866703
2022-10-23T10:58:00.127Z,50.866722
2022-10-23T10:58:59.647Z,50.866714
2022-10-23T10:59:59.619Z,50.866695
2022-10-23T11:01:00.805Z,50.866722
2022-10-23T11:01:59.839Z,50.866688
2022-10-23T11:02:59.606Z,50.866699
2022-10-23T11:03:59.597Z,50.866711
2022-10-23T11:04:59.590Z,50.866734
2022-10-23T11:07:00.575Z,50.866692
2022-10-23T11:07:59.597Z,50.866692
2022-10-23T11:09:19.414Z,50.866756
2022-10-23T11:10:01.569Z,50.866745
2022-10-23T11:10:59.566Z,50.866737
2022-10-23T11:11:59.539Z,50.866707
2022-10-23T11:12:59.526Z,50.866669
2022-10-23T11:13:59.529Z,50.866665
2022-10-23T11:14:59.508Z,50.866684
2022-10-23T11:15:59.522Z,50.866684
2022-10-23T11:17:00.024Z,50.866638
2022-10-23T11:17:59.497Z,50.866673
2022-10-23T11:18:59.469Z,50.866631
2022-10-23T11:19:59.461Z,50.866669
2022-10-23T11:21:00.460Z,50.866642
2022-10-23T11:21:59.454Z,50.866676
2022-10-23T11:22:59.442Z,50.866638
2022-10-23T11:23:59.562Z,50.866585
2022-10-23T11:24:59.436Z,50.866688
2022-10-23T11:25:59.432Z,50.866676
2022-10-23T11:26:59.420Z,50.866581
2022-10-23T11:28:03.553Z,50.866589
2022-10-23T11:29:01.392Z,50.866634
2022-10-23T11:29:59.393Z,50.866615
2022-10-23T11:30:59.387Z,50.866642
2022-10-23T11:31:59.380Z,50.866577
2022-10-23T11:32:59.365Z,50.866589
2022-10-23T11:33:59.359Z,50.866604
2022-10-23T11:34:59.354Z,50.866600
2022-10-23T11:35:59.372Z,50.866531
2022-10-23T11:36:59.343Z,50.866581
2022-10-23T11:37:59.333Z,50.866550
2022-10-23T11:38:59.323Z,50.866596
2022-10-23T11:39:59.321Z,50.866600
2022-10-23T11:40:59.306Z,50.866520
2022-10-23T11:41:59.294Z,50.866585
2022-10-23T11:42:59.297Z,50.866554
2022-10-23T11:43:59.276Z,50.866470
2022-10-23T11:44:59.268Z,50.866505